Time;durP1;ratioP1;P1;durP2;ratioP2;P2;SDS_P1;SDS_P2;PMS_P1;PMS_P2;Temp;Humidity;BMP_temperature;BMP_pressure;BME280_temperature;BME280_humidity;BME280_pressure;Samples;Min_cycle;Max_cycle;Signal;HPM_P1;HPM_P2
2021/01/23 00:01:07;;;;;;;20.88;13.52;;;;;;;2.97;91.58;98674.19;4991916;28;20117;-73
2021/01/23 00:03:32;;;;;;;26.88;16.95;;;;;;;2.99;91.17;98684.50;4989267;28;20037;-73
2021/01/23 00:05:58;;;;;;;16.15;10.85;;;;;;;2.98;91.32;98682.88;4994604;28;20490;-74
2021/01/23 00:08:23;;;;;;;19.98;14.18;;;;;;;3.07;91.21;98691.59;4988802;28;20151;-74
2021/01/23 00:10:48;;;;;;;16.52;11.90;;;;;;;3.06;91.57;98692.56;4988750;28;20121;-73
2021/01/23 00:13:14;;;;;;;15.30;10.80;;;;;;;3.09;91.24;98702.72;4991977;28;20550;-74
2021/01/23 00:15:39;;;;;;;21.50;13.85;;;;;;;3.15;90.75;98700.34;4989167;28;20026;-73
2021/01/23 00:18:04;;;;;;;20.05;13.40;;;;;;;3.17;90.69;98693.16;4993085;28;20037;-74
2021/01/23 00:20:30;;;;;;;20.27;13.60;;;;;;;3.14;91.11;98698.66;4997165;28;20499;-74
2021/01/23 00:22:55;;;;;;;17.80;12.45;;;;;;;3.08;92.05;98706.31;4989740;28;20435;-74
2021/01/23 00:25:20;;;;;;;17.30;11.70;;;;;;;3.16;91.05;98704.56;4990194;28;20065;-74
2021/01/23 00:27:46;;;;;;;30.75;19.80;;;;;;;3.25;90.27;98718.53;4995303;28;20026;-74
2021/01/23 00:30:11;;;;;;;22.45;15.60;;;;;;;3.23;90.32;98719.66;4984375;28;20030;-74
2021/01/23 00:32:37;;;;;;;26.83;17.67;;;;;;;3.24;90.29;98727.31;4988827;28;20117;-74
2021/01/23 00:35:03;;;;;;;14.75;10.35;;;;;;;3.22;91.64;98718.00;4992097;28;20034;-74
2021/01/23 00:37:28;;;;;;;22.05;15.57;;;;;;;3.11;92.30;98722.47;4989045;28;20617;-74
2021/01/23 00:39:53;;;;;;;14.13;10.07;;;;;;;3.16;91.82;98719.44;4995943;28;20038;-74
2021/01/23 00:42:19;;;;;;;16.75;10.75;;;;;;;3.25;91.19;98733.41;4993597;28;20542;-74
2021/01/23 00:44:44;;;;;;;24.63;15.57;;;;;;;3.19;91.82;98735.63;4992468;28;20037;-74
2021/01/23 00:47:09;;;;;;;14.32;10.57;;;;;;;3.22;91.39;98738.91;5000258;28;20050;-74
2021/01/23 00:49:35;;;;;;;15.60;10.68;;;;;;;3.23;91.92;98745.78;4995992;28;20037;-74
2021/01/23 00:52:00;;;;;;;26.23;16.67;;;;;;;3.30;90.65;98742.41;4993844;28;20148;-74
2021/01/23 00:54:25;;;;;;;18.45;13.13;;;;;;;3.30;90.87;98744.22;4992146;28;20482;-74
2021/01/23 00:56:51;;;;;;;20.98;14.45;;;;;;;3.24;91.99;98740.38;4995393;28;20527;-74
2021/01/23 00:59:16;;;;;;;13.45;9.40;;;;;;;3.30;91.55;98745.03;4992228;28;20038;-74
2021/01/23 01:01:41;;;;;;;22.23;15.10;;;;;;;3.29;91.14;98747.78;4994686;28;20058;-74
2021/01/23 01:04:06;;;;;;;21.35;14.57;;;;;;;3.29;90.84;98740.78;4991888;28;20489;-75
2021/01/23 01:06:32;;;;;;;24.33;15.90;;;;;;;3.30;90.76;98742.41;4991264;28;20103;-74
2021/01/23 01:08:57;;;;;;;19.75;13.38;;;;;;;3.21;92.13;98745.09;4992057;28;20395;-74
2021/01/23 01:11:22;;;;;;;12.20;9.10;;;;;;;3.23;92.14;98735.34;4991518;28;20418;-74
2021/01/23 01:13:48;;;;;;;27.88;18.30;;;;;;;3.35;90.50;98737.56;4991958;28;20134;-74
2021/01/23 01:16:13;;;;;;;27.13;17.70;;;;;;;3.31;90.69;98738.00;4991573;28;20030;-74
2021/01/23 01:18:38;;;;;;;24.00;15.90;;;;;;;3.30;90.50;98746.81;4991866;28;20057;-74
2021/01/23 01:21:04;;;;;;;19.40;14.13;;;;;;;3.28;90.42;98748.75;4991662;28;20443;-74
2021/01/23 01:23:29;;;;;;;17.08;12.43;;;;;;;3.27;91.28;98752.34;4991015;28;20046;-74
2021/01/23 01:25:54;;;;;;;27.63;18.90;;;;;;;3.42;90.03;98750.84;4995623;28;20161;-74
2021/01/23 01:28:20;;;;;;;19.17;13.60;;;;;;;3.30;90.79;98742.41;4991426;28;20042;-74
2021/01/23 01:30:45;;;;;;;17.13;12.38;;;;;;;3.36;89.98;98751.44;4996434;28;20050;-74
2021/01/23 01:33:10;;;;;;;20.42;13.85;;;;;;;3.39;89.98;98751.16;4992808;28;20038;-74
2021/01/23 01:35:36;;;;;;;11.50;8.35;;;;;;;3.33;91.41;98762.19;4992124;28;20046;-74
2021/01/23 01:38:01;;;;;;;14.60;10.27;;;;;;;3.30;92.33;98757.28;4995159;28;20022;-76
2021/01/23 01:40:27;;;;;;;17.75;12.55;;;;;;;3.33;91.48;98764.81;4993460;28;20038;-74
2021/01/23 01:42:52;;;;;;;20.65;14.45;;;;;;;3.27;92.21;98770.63;4998459;28;20101;-75
2021/01/23 01:45:17;;;;;;;12.80;9.68;;;;;;;3.27;91.52;98758.41;4992378;28;20034;-75
2021/01/23 01:47:43;;;;;;;11.18;7.68;;;;;;;3.28;91.14;98767.03;4992972;28;20034;-74
2021/01/23 01:50:09;;;;;;;10.98;7.80;;;;;;;3.27;92.01;98768.84;5004613;28;20041;-75
2021/01/23 01:52:35;;;;;;;14.40;10.43;;;;;;;3.26;92.20;98769.78;4994990;28;20568;-74
2021/01/23 01:55:01;;;;;;;14.48;10.02;;;;;;;3.24;92.20;98774.34;5002179;28;20121;-74
2021/01/23 01:57:26;;;;;;;18.13;12.00;;;;;;;3.36;91.02;98777.56;4997705;28;20031;-74
2021/01/23 01:59:52;;;;;;;29.08;17.55;;;;;;;3.43;90.20;98780.41;4994845;28;20027;-75
2021/01/23 02:02:38;;;;;;;14.32;8.32;;;;;;;3.35;90.59;98774.13;4993921;28;20035;-75
2021/01/23 02:05:18;;;;;;;17.48;11.52;;;;;;;3.39;90.10;98777.28;4993852;28;20457;-74
2021/01/23 02:08:00;;;;;;;10.88;7.97;;;;;;;3.37;90.62;98777.41;4995289;28;20435;-75
2021/01/23 02:10:48;;;;;;;12.63;8.70;;;;;;;3.34;91.44;98775.13;4993879;28;20046;-75
2021/01/23 02:13:33;;;;;;;9.63;6.97;;;;;;;3.31;92.16;98777.19;4991304;28;20407;-75
2021/01/23 02:16:11;;;;;;;11.98;8.63;;;;;;;3.27;92.30;98786.31;4996039;28;20038;-74
2021/01/23 02:18:41;;;;;;;19.15;11.70;;;;;;;3.35;90.89;98795.03;4998670;28;20052;-75
2021/01/23 02:21:18;;;;;;;9.27;6.85;;;;;;;3.33;91.03;98789.13;4999463;28;20487;-74
2021/01/23 02:23:46;;;;;;;11.77;7.97;;;;;;;3.36;90.85;98798.47;5000132;28;20038;-75
2021/01/23 02:26:18;;;;;;;8.15;5.90;;;;;;;3.36;91.40;98799.31;5002120;28;20438;-75
2021/01/23 02:29:03;;;;;;;17.55;11.20;;;;;;;3.28;91.82;98801.00;4990808;28;20129;-75
2021/01/23 02:31:36;;;;;;;13.18;9.27;;;;;;;3.30;91.24;98812.94;5003990;28;20042;-74
2021/01/23 02:34:03;;;;;;;10.23;7.35;;;;;;;3.28;91.86;98814.06;4996976;28;20458;-75
2021/01/23 02:36:30;;;;;;;10.90;7.63;;;;;;;3.30;91.24;98812.13;5002331;28;20096;-75
2021/01/23 02:38:57;;;;;;;12.90;8.80;;;;;;;3.35;91.12;98818.53;5001513;28;20041;-75
2021/01/23 02:41:23;;;;;;;21.02;13.52;;;;;;;3.41;90.16;98817.16;4999423;28;20559;-74
2021/01/23 02:43:48;;;;;;;19.13;12.73;;;;;;;3.44;89.81;98824.69;5002904;28;20042;-74
2021/01/23 02:46:18;;;;;;;19.20;13.43;;;;;;;3.40;89.75;98825.94;4996070;28;20038;-75
2021/01/23 02:48:44;;;;;;;21.17;13.40;;;;;;;3.34;89.98;98835.19;4999876;28;20590;-74
2021/01/23 02:51:21;;;;;;;15.15;10.15;;;;;;;3.25;92.01;98848.31;5003175;28;20034;-74
2021/01/23 02:53:48;;;;;;;8.70;6.45;;;;;;;3.24;92.18;98841.44;5000705;28;20426;-74
2021/01/23 02:56:24;;;;;;;10.90;7.68;;;;;;;3.21;92.52;98846.97;4993926;28;20037;-75
2021/01/23 02:58:49;;;;;;;8.27;6.00;;;;;;;3.26;91.84;98853.38;4997107;28;20455;-74
2021/01/23 03:01:16;;;;;;;7.40;4.50;;;;;;;3.30;91.41;98848.69;4999169;28;20103;-74
2021/01/23 03:03:43;;;;;;;20.90;13.07;;;;;;;3.42;90.33;98857.16;4991176;28;20125;-74
2021/01/23 03:06:09;;;;;;;8.88;6.65;;;;;;;3.34;90.91;98850.88;4998480;28;20029;-75
2021/01/23 03:08:34;;;;;;;5.72;4.38;;;;;;;3.37;90.82;98854.97;4990934;28;20113;-74
2021/01/23 03:10:59;;;;;;;9.23;6.70;;;;;;;3.33;92.06;98858.84;4996549;28;20044;-74
2021/01/23 03:13:25;;;;;;;14.00;10.38;;;;;;;3.23;92.26;98861.53;4996354;28;20044;-74
2021/01/23 03:15:50;;;;;;;12.93;9.20;;;;;;;3.22;92.45;98864.25;4992509;28;20569;-74
2021/01/23 03:18:16;;;;;;;20.25;13.38;;;;;;;3.35;90.47;98860.34;4994569;28;20030;-75
2021/01/23 03:20:41;;;;;;;17.65;11.55;;;;;;;3.38;89.84;98862.69;5001893;28;20558;-75
2021/01/23 03:23:07;;;;;;;17.23;11.90;;;;;;;3.36;89.81;98867.22;4996333;28;20372;-75
2021/01/23 03:25:32;;;;;;;14.18;9.45;;;;;;;3.32;89.83;98863.25;4993765;28;20535;-74
2021/01/23 03:27:58;;;;;;;12.00;8.00;;;;;;;3.30;90.02;98875.66;4999719;28;20391;-74
2021/01/23 03:30:25;;;;;;;11.93;8.10;;;;;;;3.31;90.06;98879.91;4994778;28;20042;-74
2021/01/23 03:32:52;;;;;;;10.07;6.93;;;;;;;3.29;91.60;98886.22;4992428;28;20046;-75
2021/01/23 03:35:18;;;;;;;14.55;9.77;;;;;;;3.17;92.04;98880.38;4992667;28;20451;-74
2021/01/23 03:37:43;;;;;;;8.48;5.80;;;;;;;3.19;91.62;98881.91;4992608;28;20027;-74
2021/01/23 03:40:09;;;;;;;9.23;6.43;;;;;;;3.21;92.08;98884.34;4993257;28;20034;-74
2021/01/23 03:42:36;;;;;;;6.55;4.80;;;;;;;3.23;91.85;98887.63;4991114;28;20042;-74
2021/01/23 03:45:04;;;;;;;8.18;5.28;;;;;;;3.23;91.87;98886.81;4992511;28;20038;-74
2021/01/23 03:47:29;;;;;;;9.13;5.63;;;;;;;3.26;90.82;98887.34;4990957;28;20491;-74
2021/01/23 03:49:54;;;;;;;10.40;7.72;;;;;;;3.30;90.38;98873.03;4996236;28;20053;-74
2021/01/23 03:52:20;;;;;;;6.95;5.10;;;;;;;3.29;90.58;98873.16;4990974;28;20061;-75
2021/01/23 03:54:45;;;;;;;17.73;11.25;;;;;;;3.36;90.00;98872.47;4992912;28;20578;-74
2021/01/23 03:57:10;;;;;;;11.35;7.72;;;;;;;3.30;90.74;98878.25;4989117;28;20522;-75
2021/01/23 03:59:36;;;;;;;7.43;4.93;;;;;;;3.31;90.55;98881.69;4997807;28;20030;-75
2021/01/23 04:02:02;;;;;;;12.88;7.68;;;;;;;3.33;90.25;98879.75;4997367;28;20034;-74
2021/01/23 04:04:28;;;;;;;16.70;10.80;;;;;;;3.34;89.88;98870.97;4998473;28;20026;-74
2021/01/23 04:06:53;;;;;;;12.23;8.80;;;;;;;3.28;90.55;98876.75;4990754;28;20041;-74
2021/01/23 04:09:19;;;;;;;16.15;9.52;;;;;;;3.31;89.93;98874.69;4997621;28;20026;-74
2021/01/23 04:11:44;;;;;;;10.43;7.18;;;;;;;3.26;91.46;98871.66;4990339;28;20068;-74
2021/01/23 04:14:10;;;;;;;9.88;7.30;;;;;;;3.17;91.81;98868.16;4997062;28;20034;-74
2021/01/23 04:16:36;;;;;;;8.48;6.15;;;;;;;3.11;92.20;98868.72;5001946;28;20076;-75
2021/01/23 04:19:01;;;;;;;7.43;5.30;;;;;;;3.08;92.41;98876.84;5000614;28;20026;-74
2021/01/23 04:21:26;;;;;;;8.95;6.50;;;;;;;3.02;92.56;98880.03;4994429;28;20065;-74
2021/01/23 04:23:52;;;;;;;9.70;7.57;;;;;;;2.92;92.38;98881.88;5001622;28;20384;-74
2021/01/23 04:26:17;;;;;;;10.20;6.57;;;;;;;3.00;90.87;98881.16;4996244;28;20062;-74
2021/01/23 04:28:42;;;;;;;11.05;6.47;;;;;;;3.03;90.42;98881.69;4996872;28;20065;-74
2021/01/23 04:31:08;;;;;;;11.07;6.97;;;;;;;3.04;89.98;98883.31;4994494;28;20034;-74
2021/01/23 04:33:34;;;;;;;14.02;9.15;;;;;;;3.08;89.71;98881.25;4996231;28;20399;-74
2021/01/23 04:36:00;;;;;;;14.75;9.80;;;;;;;3.05;89.44;98881.53;4990158;28;20030;-74
2021/01/23 04:38:26;;;;;;;9.45;7.00;;;;;;;2.94;89.96;98874.72;4993160;28;20395;-74
2021/01/23 04:40:57;;;;;;;7.63;5.00;;;;;;;2.91;90.33;98877.63;4998518;28;20030;-75
2021/01/23 04:43:22;;;;;;;;;;;;;;;2.96;89.66;98867.56;5005658;28;20054;-74
2021/01/23 04:45:48;;;;;;;10.05;6.53;;;;;;;2.92;89.72;98871.44;4992686;28;19914;-75
2021/01/23 04:48:16;;;;;;;6.40;4.45;;;;;;;2.88;90.50;98870.88;5002252;28;20037;-75
2021/01/23 04:50:41;;;;;;;6.10;4.40;;;;;;;2.84;91.28;98874.75;4999625;28;20037;-75
2021/01/23 04:53:07;;;;;;;6.57;4.65;;;;;;;2.78;90.72;98870.09;5000450;28;20026;-75
2021/01/23 04:55:32;;;;;;;9.23;6.22;;;;;;;2.85;89.94;98879.00;4998895;28;20039;-74
2021/01/23 04:57:57;;;;;;;9.70;6.63;;;;;;;2.84;89.79;98877.38;4999928;28;20633;-74
2021/01/23 05:00:23;;;;;;;10.93;7.55;;;;;;;2.87;89.42;98882.31;4998843;28;20045;-74
2021/01/23 05:02:59;;;;;;;8.90;5.95;;;;;;;2.76;91.05;98882.47;4998721;28;20061;-74
2021/01/23 05:05:25;;;;;;;9.95;6.90;;;;;;;2.67;91.19;98889.38;5001275;28;20577;-74
2021/01/23 05:07:50;;;;;;;7.75;5.93;;;;;;;2.52;91.90;98896.81;5005680;28;20034;-74
2021/01/23 05:10:23;;;;;;;6.88;5.22;;;;;;;2.55;90.81;98899.16;4999890;28;20038;-74
2021/01/23 05:12:53;;;;;;;5.10;3.60;;;;;;;2.52;91.80;98888.97;5005286;28;20042;-74
2021/01/23 05:15:22;;;;;;;6.80;4.80;;;;;;;2.54;91.06;98894.06;4998358;28;20527;-74
2021/01/23 05:18:02;;;;;;;10.43;6.18;;;;;;;2.57;90.46;98901.59;4999111;28;20080;-74
2021/01/23 05:20:33;;;;;;;8.90;6.05;;;;;;;2.59;90.06;98899.69;4994370;28;20458;-74
2021/01/23 05:22:59;;;;;;;;;;;;;;;2.67;89.17;98896.34;4993877;28;20039;-74
2021/01/23 05:25:31;;;;;;;11.88;7.50;;;;;;;2.64;88.90;98902.69;4992628;28;19914;-74
2021/01/23 05:27:58;;;;;;;12.38;7.63;;;;;;;2.65;88.67;98909.56;4992727;28;20030;-74
2021/01/23 05:30:24;;;;;;;12.30;8.50;;;;;;;2.71;88.64;98908.16;4993789;28;20033;-74
2021/01/23 05:33:16;;;;;;;13.07;9.10;;;;;;;2.74;88.68;98905.28;5003829;28;20084;-74
2021/01/23 05:35:43;;;;;;;12.15;8.25;;;;;;;2.68;89.11;98908.47;5001880;28;20038;-74
2021/01/23 05:38:23;;;;;;;17.30;10.82;;;;;;;2.79;89.09;98897.88;4995255;28;20054;-74
2021/01/23 05:40:54;;;;;;;16.42;9.50;;;;;;;2.66;89.68;98887.72;4998383;28;20041;-74
2021/01/23 05:43:35;;;;;;;15.43;10.00;;;;;;;2.76;89.02;98883.31;4995725;28;20158;-74
2021/01/23 05:46:11;;;;;;;16.80;10.38;;;;;;;2.79;88.94;98879.59;4998775;28;20041;-74
2021/01/23 05:48:41;;;;;;;16.98;11.38;;;;;;;2.74;89.48;98877.41;4984254;28;20054;-74
2021/01/23 05:51:07;;;;;;;13.82;9.05;;;;;;;2.75;89.42;98883.44;5008616;28;20054;-74
2021/01/23 05:53:33;;;;;;;17.02;11.10;;;;;;;2.73;89.09;98883.56;4991662;28;20026;-74
2021/01/23 05:56:01;;;;;;;21.38;11.70;;;;;;;2.89;88.69;98874.34;4992679;28;20041;-74
2021/01/23 05:58:28;;;;;;;17.55;11.05;;;;;;;2.70;89.39;98864.78;4991734;28;20038;-74
2021/01/23 06:00:55;;;;;;;17.70;10.85;;;;;;;2.75;89.29;98867.78;5004473;28;20034;-74
2021/01/23 06:03:21;;;;;;;17.38;11.40;;;;;;;2.70;89.38;98856.94;4992331;28;20164;-74
2021/01/23 06:05:52;;;;;;;18.25;12.25;;;;;;;2.76;89.12;98862.44;4997283;28;20117;-74
2021/01/23 06:08:43;;;;;;;18.25;11.23;;;;;;;2.68;89.15;98872.75;4999420;28;20031;-74
2021/01/23 06:11:18;;;;;;;20.38;12.70;;;;;;;2.66;89.25;98879.88;4995511;28;20116;-74
2021/01/23 06:13:46;;;;;;;21.15;13.20;;;;;;;2.74;88.87;98884.38;5002896;28;20042;-75
2021/01/23 06:16:33;;;;;;;18.42;11.88;;;;;;;2.73;88.88;98880.16;4995021;28;20538;-74
2021/01/23 06:19:05;;;;;;;23.98;14.50;;;;;;;2.68;89.20;98882.38;5001041;28;20026;-74
2021/01/23 06:21:45;;;;;;;19.23;12.27;;;;;;;2.62;89.70;98875.94;4996529;28;20706;-73
2021/01/23 06:24:17;;;;;;;21.98;13.48;;;;;;;2.61;89.65;98881.28;4992817;28;20030;-74
2021/01/23 06:26:52;;;;;;;24.08;14.65;;;;;;;2.66;89.32;98881.69;4996157;28;20042;-73
2021/01/23 06:29:34;;;;;;;24.90;14.93;;;;;;;2.64;89.09;98881.00;4991509;28;20089;-74
2021/01/23 06:32:19;;;;;;;32.95;17.80;;;;;;;2.72;88.54;98889.78;4995696;28;20030;-73
2021/01/23 06:35:01;;;;;;;24.83;15.68;;;;;;;2.68;88.68;98890.19;4991562;28;20034;-73
2021/01/23 06:37:37;;;;;;;24.73;15.32;;;;;;;2.61;89.02;98892.53;4997942;28;20530;-73
2021/01/23 06:40:10;;;;;;;25.80;14.32;;;;;;;2.62;88.95;98895.97;5000663;28;20030;-74
2021/01/23 06:42:48;;;;;;;21.08;13.65;;;;;;;2.57;89.20;98891.16;4991698;28;20085;-73
2021/01/23 06:45:26;;;;;;;28.30;15.25;;;;;;;2.54;89.34;98901.91;5007619;28;20065;-73
2021/01/23 06:47:54;;;;;;;25.50;15.02;;;;;;;2.55;89.31;98904.38;4992370;28;20030;-73
2021/01/23 06:50:43;;;;;;;23.83;14.38;;;;;;;2.56;89.04;98899.97;5007273;28;20503;-73
2021/01/23 06:53:22;;;;;;;20.73;13.25;;;;;;;2.51;89.11;98902.19;4992752;28;20045;-73
2021/01/23 06:55:54;;;;;;;25.58;14.57;;;;;;;2.52;88.96;98902.03;4992023;28;20033;-73
2021/01/23 06:58:27;;;;;;;25.05;15.27;;;;;;;2.47;89.00;98901.63;4995339;28;20397;-73
2021/01/23 07:01:00;;;;;;;22.80;14.43;;;;;;;2.46;89.17;98907.00;5002322;28;20444;-73
2021/01/23 07:03:32;;;;;;;22.52;14.30;;;;;;;2.45;89.47;98907.94;4996368;28;20039;-73
2021/01/23 07:06:02;;;;;;;29.73;17.10;;;;;;;2.60;88.83;98914.41;5003308;28;20060;-73
2021/01/23 07:08:36;;;;;;;26.27;14.57;;;;;;;2.51;89.26;98913.44;5000163;28;20042;-73
2021/01/23 07:11:08;;;;;;;28.10;16.55;;;;;;;2.59;88.96;98909.31;5006708;28;20041;-73
2021/01/23 07:13:34;;;;;;;25.30;15.55;;;;;;;2.66;88.63;98915.59;4989811;28;20034;-73
2021/01/23 07:16:00;;;;;;;26.92;15.85;;;;;;;2.59;88.92;98919.75;5002006;28;20079;-73
2021/01/23 07:18:26;;;;;;;23.92;14.98;;;;;;;2.70;88.62;98930.03;4997968;28;20046;-74
2021/01/23 07:20:51;;;;;;;23.42;15.48;;;;;;;2.72;88.51;98925.50;4995313;28;20031;-73
2021/01/23 07:23:18;;;;;;;25.48;15.10;;;;;;;2.75;88.42;98935.66;4990177;28;20033;-73
2021/01/23 07:25:44;;;;;;;25.05;15.57;;;;;;;2.75;88.38;98952.13;4996636;28;20080;-73
2021/01/23 07:28:09;;;;;;;28.15;15.90;;;;;;;2.78;88.52;98944.97;4996402;28;20038;-74
2021/01/23 07:30:34;;;;;;;22.90;14.02;;;;;;;2.80;88.30;98938.66;4997773;28;20495;-73
2021/01/23 07:33:00;;;;;;;22.05;13.63;;;;;;;2.74;88.69;98933.97;4995526;28;20035;-73
2021/01/23 07:35:25;;;;;;;23.40;15.65;;;;;;;2.74;88.81;98947.03;4996631;28;20034;-73
2021/01/23 07:37:55;;;;;;;25.58;15.05;;;;;;;2.83;88.47;98940.16;4992771;28;20034;-73
2021/01/23 07:40:22;;;;;;;21.02;12.80;;;;;;;2.76;88.94;98932.06;4993076;28;20045;-74
2021/01/23 07:42:50;;;;;;;21.88;13.65;;;;;;;2.80;88.65;98930.81;4995798;28;20029;-73
2021/01/23 07:45:16;;;;;;;20.20;12.35;;;;;;;2.81;88.53;98922.00;5005372;28;20034;-73
2021/01/23 07:47:42;;;;;;;20.00;12.18;;;;;;;2.88;88.05;98919.66;4996368;28;20039;-73
2021/01/23 07:50:12;;;;;;;15.70;11.00;;;;;;;2.86;87.88;98912.00;4996401;28;20044;-73
2021/01/23 07:52:39;;;;;;;15.65;10.65;;;;;;;2.83;88.03;98912.25;4992381;28;20085;-73
2021/01/23 07:55:07;;;;;;;19.33;11.63;;;;;;;2.90;87.71;98908.09;4999090;28;20038;-73
2021/01/23 07:57:32;;;;;;;19.20;11.95;;;;;;;2.92;87.61;98903.56;4991359;28;20089;-73
2021/01/23 07:59:58;;;;;;;18.02;11.27;;;;;;;2.94;87.74;98911.28;4999732;28;20038;-72
2021/01/23 08:02:23;;;;;;;16.63;10.10;;;;;;;2.96;87.49;98912.78;4999187;28;20052;-73
2021/01/23 08:04:56;;;;;;;19.15;10.68;;;;;;;3.00;87.22;98907.25;4997917;28;20034;-73
2021/01/23 08:07:29;;;;;;;14.77;10.00;;;;;;;3.03;87.23;98902.59;4991753;28;20129;-74
2021/01/23 08:10:36;;;;;;;15.63;10.68;;;;;;;3.12;86.72;98890.44;5005352;28;20041;-73
2021/01/23 08:13:06;;;;;;;17.58;9.52;;;;;;;3.08;86.93;98889.91;4914366;29;20032;-73
2021/01/23 08:15:40;;;;;;;16.08;9.93;;;;;;;3.09;86.82;98886.31;4915391;29;20044;-73
2021/01/23 08:18:17;;;;;;;16.73;10.18;;;;;;;3.16;86.99;98887.38;4956450;28;20146;-74
2021/01/23 08:20:42;;;;;;;13.40;9.50;;;;;;;3.13;87.18;98881.66;4994130;28;20189;-73
2021/01/23 08:23:10;;;;;;;13.70;8.75;;;;;;;3.20;87.28;98885.31;4992148;28;20488;-73
2021/01/23 08:25:44;;;;;;;14.02;8.63;;;;;;;3.21;87.27;98879.13;4994790;28;20034;-74
2021/01/23 08:28:09;;;;;;;13.48;7.35;;;;;;;3.22;87.57;98872.94;4989951;28;20034;-74
2021/01/23 08:30:35;;;;;;;13.02;9.00;;;;;;;3.31;86.34;98874.69;4994286;28;20034;-73
2021/01/23 08:33:03;;;;;;;12.80;8.68;;;;;;;3.42;85.67;98865.81;4990299;28;20031;-73
2021/01/23 08:35:31;;;;;;;11.40;8.68;;;;;;;3.42;85.39;98865.81;4997030;28;20558;-74
2021/01/23 08:37:56;;;;;;;11.80;8.43;;;;;;;3.38;85.35;98872.28;4990509;28;20468;-73
2021/01/23 08:40:23;;;;;;;13.77;8.95;;;;;;;3.46;84.84;98869.78;4995999;28;20057;-73
2021/01/23 08:42:50;;;;;;;13.48;8.95;;;;;;;3.53;84.29;98870.03;4992542;28;20026;-73
2021/01/23 08:45:17;;;;;;;14.10;8.95;;;;;;;3.39;84.90;98869.53;4997344;28;20046;-73
2021/01/23 08:47:42;;;;;;;8.50;6.05;;;;;;;3.34;85.17;98861.31;4990494;28;20045;-73
2021/01/23 08:50:09;;;;;;;11.82;8.18;;;;;;;3.33;85.01;98864.88;4992186;28;20399;-74
2021/01/23 08:52:34;;;;;;;10.38;6.68;;;;;;;3.47;83.63;98854.94;4990046;28;20396;-73
2021/01/23 08:54:59;;;;;;;12.20;7.38;;;;;;;3.48;84.22;98851.31;4996732;28;20117;-73
2021/01/23 08:57:25;;;;;;;11.32;6.75;;;;;;;3.45;84.09;98852.44;5004233;28;20042;-73
2021/01/23 08:59:50;;;;;;;7.97;6.05;;;;;;;3.36;84.83;98848.09;4996332;28;20495;-73
2021/01/23 09:02:15;;;;;;;7.50;5.40;;;;;;;3.51;84.02;98849.25;5003452;28;20038;-73
2021/01/23 09:04:41;;;;;;;6.95;5.47;;;;;;;3.38;85.12;98844.41;4999021;28;20411;-73
2021/01/23 09:07:08;;;;;;;7.97;5.20;;;;;;;3.42;84.91;98847.53;5001383;28;20392;-73
2021/01/23 09:09:33;;;;;;;9.23;5.50;;;;;;;3.40;85.23;98855.50;5000525;28;20038;-73
2021/01/23 09:11:58;;;;;;;6.90;5.05;;;;;;;3.43;84.70;98853.56;5005106;28;20375;-73
2021/01/23 09:14:23;;;;;;;8.55;5.80;;;;;;;3.55;84.10;98842.78;4997230;28;20537;-73
2021/01/23 09:16:49;;;;;;;8.07;4.53;;;;;;;3.50;84.46;98847.59;4996509;28;20077;-73
2021/01/23 09:19:14;;;;;;;6.68;4.75;;;;;;;3.56;83.84;98849.63;4994437;28;20050;-73
2021/01/23 09:21:39;;;;;;;5.93;4.32;;;;;;;3.43;85.31;98846.53;4996553;28;20077;-73
2021/01/23 09:24:08;;;;;;;6.88;4.47;;;;;;;3.46;85.01;98846.28;4999477;28;20037;-73
2021/01/23 09:26:33;;;;;;;6.35;4.78;;;;;;;3.54;84.16;98848.13;4997866;28;20052;-73
2021/01/23 09:28:58;;;;;;;7.38;4.97;;;;;;;3.53;84.26;98838.66;4996462;28;20038;-73
2021/01/23 09:31:23;;;;;;;7.25;4.72;;;;;;;3.50;84.57;98837.13;4996629;28;20034;-73
2021/01/23 09:33:50;;;;;;;8.55;4.57;;;;;;;3.54;84.19;98841.13;4992864;28;20034;-73
2021/01/23 09:36:16;;;;;;;6.18;4.45;;;;;;;3.63;83.69;98842.03;4994789;28;20068;-73
2021/01/23 09:38:41;;;;;;;6.60;4.40;;;;;;;3.81;81.91;98840.25;4999909;28;20035;-73
2021/01/23 09:41:07;;;;;;;6.30;4.65;;;;;;;3.76;82.00;98841.63;4994097;28;20034;-73
2021/01/23 09:43:33;;;;;;;8.18;4.70;;;;;;;3.72;82.44;98840.28;4999753;28;20042;-73
2021/01/23 09:45:59;;;;;;;6.45;5.05;;;;;;;3.67;83.10;98850.38;5000448;28;20057;-73
2021/01/23 09:48:24;;;;;;;7.68;4.70;;;;;;;3.69;82.85;98840.59;4998413;28;20050;-73
2021/01/23 09:50:49;;;;;;;9.15;4.90;;;;;;;3.65;83.21;98845.31;5000216;28;20030;-73
2021/01/23 09:53:15;;;;;;;7.80;5.25;;;;;;;3.72;82.71;98843.75;4992139;28;20035;-73
2021/01/23 09:55:41;;;;;;;8.20;5.20;;;;;;;3.74;82.30;98841.81;5003967;28;20033;-73
2021/01/23 09:58:06;;;;;;;8.82;4.82;;;;;;;3.68;82.65;98841.56;4999942;28;20034;-73
2021/01/23 10:00:31;;;;;;;6.18;4.50;;;;;;;3.63;83.35;98839.41;5002409;28;20042;-73
2021/01/23 10:02:57;;;;;;;7.43;4.47;;;;;;;3.64;83.44;98835.00;4997609;28;20038;-73
2021/01/23 10:05:22;;;;;;;5.00;3.80;;;;;;;3.58;84.57;98833.81;4999663;28;20066;-73
2021/01/23 10:07:47;;;;;;;6.20;4.47;;;;;;;3.68;83.63;98823.28;4995540;28;20039;-73
2021/01/23 10:10:13;;;;;;;8.07;4.72;;;;;;;3.70;83.50;98823.97;4997122;28;20683;-73
2021/01/23 10:12:39;;;;;;;6.15;4.50;;;;;;;3.70;83.75;98818.72;4992183;28;20030;-73
2021/01/23 10:15:05;;;;;;;7.13;4.35;;;;;;;3.79;83.36;98817.81;5000340;28;20032;-73
2021/01/23 10:17:30;;;;;;;6.72;4.57;;;;;;;3.74;83.64;98823.50;4992736;28;20066;-74
2021/01/23 10:19:55;;;;;;;6.53;4.55;;;;;;;3.84;82.75;98810.34;4994664;28;20037;-73
2021/01/23 10:22:24;;;;;;;5.47;4.03;;;;;;;3.81;82.91;98808.03;4995765;28;20046;-73
2021/01/23 10:24:49;;;;;;;6.65;4.75;;;;;;;3.87;82.61;98807.44;4993673;28;20034;-73
2021/01/23 10:27:15;;;;;;;5.82;4.05;;;;;;;3.80;82.95;98812.44;4999286;28;20035;-73
2021/01/23 10:29:40;;;;;;;6.68;4.60;;;;;;;3.94;82.00;98811.09;4998215;28;20030;-73
2021/01/23 10:32:06;;;;;;;5.60;4.22;;;;;;;3.87;82.54;98807.44;4993349;28;20042;-73
2021/01/23 10:34:31;;;;;;;5.38;4.28;;;;;;;3.88;82.66;98806.44;5001071;28;20045;-73
2021/01/23 10:36:56;;;;;;;6.00;3.60;;;;;;;3.87;82.64;98806.63;4996624;28;20097;-73
2021/01/23 10:39:22;;;;;;;7.55;4.63;;;;;;;3.91;82.63;98803.56;4995071;28;20046;-73
2021/01/23 10:41:47;;;;;;;6.55;4.65;;;;;;;3.92;82.73;98799.13;4997163;28;20034;-73
2021/01/23 10:44:14;;;;;;;7.10;5.00;;;;;;;4.11;81.65;98798.13;5000889;28;20057;-73
2021/01/23 10:46:39;;;;;;;6.93;4.93;;;;;;;3.91;83.13;98787.84;4999485;28;20120;-73
2021/01/23 10:49:04;;;;;;;8.43;5.50;;;;;;;3.96;82.83;98784.78;4993049;28;20129;-73
2021/01/23 10:51:30;;;;;;;8.15;4.90;;;;;;;4.03;82.43;98776.19;4995134;28;20042;-73
2021/01/23 10:53:56;;;;;;;8.10;4.35;;;;;;;4.15;82.09;98775.94;4993605;28;20030;-73
2021/01/23 10:56:21;;;;;;;6.13;4.68;;;;;;;4.28;81.63;98773.72;4995760;28;20526;-73
2021/01/23 10:58:46;;;;;;;6.80;5.10;;;;;;;4.29;82.15;98764.06;4989805;28;20023;-73
2021/01/23 11:01:12;;;;;;;6.63;5.07;;;;;;;4.36;82.09;98755.44;4999392;28;20034;-73
2021/01/23 11:03:37;;;;;;;6.95;5.22;;;;;;;4.49;81.71;98759.44;4996519;28;20158;-73
2021/01/23 11:06:03;;;;;;;7.05;5.78;;;;;;;4.58;81.23;98756.69;4994584;28;20380;-74
2021/01/23 11:08:28;;;;;;;7.85;6.05;;;;;;;4.60;81.52;98746.91;5000430;28;20038;-73
2021/01/23 11:10:54;;;;;;;8.32;5.80;;;;;;;4.68;81.77;98738.25;5003254;28;20126;-73
2021/01/23 11:13:19;;;;;;;8.02;6.68;;;;;;;4.79;80.53;98744.97;4992553;28;20478;-73
2021/01/23 11:15:45;;;;;;;9.60;6.10;;;;;;;4.96;79.94;98740.59;4997465;28;20031;-73
2021/01/23 11:18:10;;;;;;;8.73;6.60;;;;;;;4.90;80.17;98735.03;4995418;28;20045;-73
2021/01/23 11:20:35;;;;;;;10.77;6.40;;;;;;;5.00;80.01;98728.84;4990969;28;20125;-73
2021/01/23 11:23:01;;;;;;;10.60;7.22;;;;;;;5.08;79.39;98736.72;4990387;28;20038;-73
2021/01/23 11:25:29;;;;;;;7.45;5.55;;;;;;;5.04;79.25;98732.78;4990574;28;20056;-73
2021/01/23 11:27:55;;;;;;;6.00;4.53;;;;;;;4.98;79.70;98723.78;4989378;28;20030;-73
2021/01/23 11:30:22;;;;;;;6.78;4.97;;;;;;;5.15;78.63;98719.38;4996068;28;20049;-73
2021/01/23 11:32:47;;;;;;;7.97;5.70;;;;;;;5.21;78.62;98723.16;4995501;28;20030;-73
2021/01/23 11:35:12;;;;;;;7.00;5.63;;;;;;;5.25;78.44;98712.19;5005964;28;20096;-73
2021/01/23 11:37:38;;;;;;;8.25;5.78;;;;;;;5.40;78.51;98716.78;4999966;28;20442;-72